Hovedside
METAR-TAF:

METAR-TAF

Lufthavner :

El Salvador, El Salvador

breddegrad: 13-26N, lengdegrad: 089-03W, høyde over havet: 25 m

Gjeldene værobservasjon

Denne rapporten ble laget for 28 minutter siden, klokken 21:50 UTC
Vind 6 kt fra Sør-sørvest, skiftende mellom Sør og Vest-sørvest
Temperatur 31°C
Luftfuktighet 52%
Trykk 1007 hPa
Sikt 10 km eller mer
ingen skyer under 1500 m og ingen bygeskyer

METAR: MSLP 212150Z 21006KT 170V250 CAVOK 31/20 Q1006 A2973 NOSIG

Tid: 16:18 (22:18 UTC)

Varsel

Denne rapporten ble laget for 6 timer og 53 minutter siden, klokken 15:25 UTC
Varsel gyldig fra 21. klokken 18 UTC til 22. klokken 18 UTC
Vind 10 kt fra Sørvest
Sikt 10 km eller mer
Spredte skyer i en høyde av 7000 ft
Fra 22. klokken 0000 UTC
Vind 3 kt fra skiftende retning
Sikt 10 km eller mer
ingen skyer under 1500 m og ingen bygeskyer
Fra 22. klokken 0500 UTC
Vind 7 kt fra Nordøst

TAF: MSLP 211525Z 2118/2218 23010KT 9999 SCT070 TX33/2118Z TN24/2210Z FM220000 VRB03KT CAVOK FM220500 04007KT

Værobservasjoner og værvarsel for over 4000 flyplasser (METAR- og TAF-rapporter).

Tilgjengelige stasjoner er representert av de røde og gule prikkene på kartet.

Hold musepekeren over prikken for å se navnet på stasjonen.

Klikk så for å se værobservasjoner og -varsler.

For å forandre kartet kan du klikke på den grønne knappen med svart kryss for å zoome inn, på den grønne knappen med strek for å zoome ut, eller på de grønne pilene for å se tilstøtende kart.


METAR-TAF: